AirNav   ATP
 
 995 users online  

T25 Aero Estates Airport
Frankston, Texas, USA

GOING TO FRANKSTON?


FAA INFORMATION EFFECTIVE 26 APRIL 2018

Location

FAA Identifier: T25
Lat/Long: 32-04-54.3000N / 095-27-09.0100W
32-04.905000N / 095-27.150167W
32.0817500 / -95.4525028
(estimated)
Elevation: 445 ft. / 136 m (estimated)
From city: 3 miles NE of FRANKSTON, TX
Time zone: UTC -5 (UTC -6 during Standard Time)
Zip code: 75763

Airport Operations

Airport use: Open to the public
Activation date: 07/2004
Control tower: no
ARTCC: FORT WORTH CENTER
FSS: FORT WORTH FLIGHT SERVICE STATION
NOTAMs facility: FTW (NOTAM-D service available)
Attendance: IREG
Pattern altitude: 1455 ft. MSL
Wind indicator: lighted
Segmented circle: yes
Lights: ACTVT LIRL RY 09/27, LGTD WIND CONE & VASI RY 09 - CTAF.

Airport Communications

CTAF: 122.9
WX ASOS at TYR (17 nm N): PHONE 903-535-9105
WX AWOS-3 at JSO (17 nm SE): 119.075 (903-586-0124)
WX AWOS-3PT at F44 (20 nm W): 119.6 (903-670-1247)

Nearby radio navigation aids

VOR radial/distance  VOR name  Freq  Var
FZTr078/4.0FRANKSTON VOR/DME111.4006E
TYRr183/16.6TYLER VOR/DME114.2006E
CQYr093/39.4CEDAR CREEK VORTAC114.8006E

 
NDB name  Hdg/Dist  Freq  Var  ID
ATHENS098/19.826906EAHX .- .... -..-
PALESTINE031/22.037504EPSN .--. ... -.
CROSSROADS080/25.721508ECSZ -.-. ... --..
AMBASSADOR203/34.840407EABG .- -... --.

Airport Services

Parking: tiedowns

Runway Information

Runway 9/27

Dimensions: 3100 x 60 ft. / 945 x 18 m
Surface: turf, in good condition
Runway edge lights: low intensity
Runway edge markings: RY MARKED WITH 18 FT NUMERALS ON 40 FT BY 50 FT ASPH PAD.
RUNWAY 9  RUNWAY 27
Traffic pattern: right
ALL ACFT REMAIN SOUTH OF THE RY.
left
Markings: NSTD, in good conditionNSTD, in good condition
Visual slope indicator: 2-box VASI on left
Obstructions: 25 ft. pole, 90 ft. left of centerline31 ft. trees, 60 ft. right of centerline

Helipad H1

Dimensions: 50 x 50 ft. / 15 x 15 m
Surface: turf, in good condition
Traffic pattern: leftleft

Airport Ownership and Management from official FAA records

Ownership: Privately-owned
Owner: POAAE INC
BOX 490
FRANKSTON, TX 75763
ASSOCIATION OF HOMEOWNERS. GARNET MCCLURE - PRESIDENT.
Manager: GARNET MCCLURE
11685 PILOT LANE
FRANKSTON, TX 75763
Phone (903) 617-7860

Airport Operational Statistics

Aircraft based on the field: 27
Single engine airplanes: 24
Multi engine airplanes: 1
Helicopters: 2
    
Aircraft operations: avg 27/day *
75% local general aviation
25% transient general aviation
* for 12-month period ending 16 June 2016

Additional Remarks

A52-H1 14 FT BLDG 200 FT NORTH & 20 FT BLDG 200 FT WEST OF LNDG PAD. 43 FT TREES 152 FT N; 30 FT POLE 70 FT E; 38 FT TREES 280 FT S; 25 FT POLE 205 FT W.
A57-H1 APCH RATIO TO NORTH 3:1; EAST 2:1, SOUTH 7:1 & WEST 8:1.
ALL ACFT MONITOR CTAF DUE TO PROXIMITY TO PARADISE POINT ARPT.
UNMKD & UNLGTD PLINE AND TREES RUNNING PARALLEL TO THE RY AND LCTD ON RY 27 APCH AT THREE O'CLOCK.
DEER ON & INVOF RY.
STUDENT PILOT TRAINING IS NOT AUTHORIZED EXCEPT BY RESIDENTS OF AERO ESTATES.

Instrument Procedures

There are no published instrument procedures at T25.

Some nearby airports with instrument procedures:

KTYR - Tyler Pounds Regional Airport (17 nm N)
KJSO - Cherokee County Airport (17 nm SE)
F44 - Athens Municipal Airport (20 nm W)
KPSN - Palestine Municipal Airport (22 nm SW)
KRFI - Rusk County Airport (31 nm E)
 
Loc | Ops | Rwys | IFR | FBO | Links
Com | Nav | Svcs | Stats | Notes

AirNav Hotels Sweepstakes
 
Area around T25 (Aero Estates Airport)
 
Road maps at: MapQuest Bing Google
 
Aerial photo
WARNING: Photo may not be current or correct
Aerial photo of T25 (Aero Estates Airport)
Photo taken 10-Jun-2017
looking northeast.

Do you have a better or more recent aerial photo of Aero Estates Airport that you would like to share? If so, please send us your photo.

 
Sectional chart

 
Airport distance calculator
Flying to Aero Estates Airport? Find the distance to fly.

From to T25

Sunrise and sunset
Times for 20-May-2018
 Local
(UTC-5)
 Zulu
(UTC)
Morning civil twilight05:5510:55
Sunrise06:2211:22
Sunset20:1401:14
Evening civil twilight20:4201:42

Current date and time
Zulu (UTC)  20-May-2018 19:17:04
Local (UTC-5)  20-May-2018 14:17:04
 
METAR
KTYR 
17nm N 
201853Z VRB03KT 10SM SCT048 31/17 A3001 RMK AO2 SLP154 T03110172
KJSO 
17nm SE 
201855Z AUTO 11005KT 10SM SCT042 SCT100 30/19 A3004 RMK AO2 LTG DSNT S AND SW T03040196
KF44 
20nm W 
201855Z AUTO 32005KT 10SM CLR 25/20 A3002 RMK AO2 LTG DSNT S THRU W
KPSN 
22nm SW 
201855Z AUTO 25013G21KT 10SM SCT044 SCT049 SCT060 24/18 A3006 RMK AO2 T02420190
KRFI 
31nm E 
201855Z AUTO 22003KT 10SM SCT048 BKN060 OVC095 30/20 A3003 RMK AO2 LTG DSNT SW T02960195
TAF
KTYR 
17nm N 
201740Z 2018/2118 22007KT P6SM VCSH SCT030 BKN040 TEMPO 2018/2021 3SM TSRA BR BKN025CB FM202200 VRB05KT P6SM FEW050 BKN110 BKN250 FM210100 VRB03KT P6SM SCT150 BKN250 FM211100 VRB03KT 5SM BR SCT250 FM211400 VRB03KT P6SM SCT250 FM211600 VRB03KT P6SM SCT030 SCT250
NOTAMs
Click for the latest NOTAMs
NOTAMs are issued by the DoD/FAA and will open in a separate window not controlled by AirNav.

 

 
 

Would you like to see your business listed on this page?

 If your business provides an interesting product or service to pilots, flight crews, aircraft, or users of the Aero Estates Airport, you should consider listing it here.  To start the listing process, click on the button below
 
Add a business
 

Other Pages about Aero Estates Airport

Update a link
 
Copyright © AirNav, LLC. All rights reserved. Privacy Policy  Contact